Airfield :
LOGIN :

Register | Disclaimer

   EN    FR    IT 

 










Legend :    VFR   Marginal VFR   IFR   Intensive IFR   Very Intensive IFR
Visi :
Ceiling :
>= 8 km
>= 3000ft
5 to 8 km
1000 to 3000 ft
1500m to 5 km
500 to 1000 ft
800 to 1500m
200 to 500 ft
< 800m
< 200 ft
Symbols :   Thunderstorms  Fog  Heavy snow  Heavy precipitations  Wind > 20 kt
SIGMETs :     Misc.  Thunderstorms  Icing  Turbulence  Mountain Waves  Volcanic Ashes






- Airport Elevation : 1860 ft
- IATA code : GRX


LEGR - Granada

CURRENT METAR :
  • 291130Z 25009KT 220V280 9999 FEW050 18/10 Q1012

EXPIRED METARs :
  • 291100Z 26011KT 230V290 9999 FEW040 17/10 Q1013
  • 291030Z 28010KT 240V300 9999 FEW040 17/10 Q1013
  • 291000Z 28006KT 230V330 9999 FEW025 17/11 Q1013
  • 290930Z 29003KT 230V360 9999 FEW020 16/11 Q1013
  • 290900Z VRB02KT 9999 FEW018 15/11 Q1013
  • 290830Z VRB02KT 9999 FEW018 15/11 Q1013

TAF TAF LEGR
Valid from the 29 at 12:00 until the 30 at 12:00 UTC


291100Z 2912/3012 29012KT 9999 FEW040 TX24/2915Z TN09/3006Z
PROB30
TEMPO 2914/2917 29015G25KT
PROB30
TEMPO 2919/2923 SHRA BKN014 SCT025TCU
BECMG 2920/2923 VRB02KT
BECMG 3007/3010 01010KT



MET'MAP, your aeronautical weather chart ! - Copyright ORBIFLY December 2007 - Disclaimer

ORBIFLY MET'MAP TEAM :

Programming & Development : Alexandra Zaïnal
Original concept : Baudouin d'Aumeries
Technical & hardware support : Manuel Goepfert
Assistance : Marc-Olivier Méhu




SOURCES & CREDITS :

   NOAA